sensor_id;sensor_type;location;lat;lon;timestamp;P1;durP1;ratioP1;P2;durP2;ratioP2
11135;SDS011;5622;50.840;4.948;2024-02-28T07:31:22;36.63;;;20.00;;
11135;SDS011;5622;50.840;4.948;2024-02-28T07:33:49;35.97;;;19.73;;
11135;SDS011;5622;50.840;4.948;2024-02-28T07:36:16;39.50;;;21.73;;
11135;SDS011;5622;50.840;4.948;2024-02-28T07:38:58;37.40;;;21.33;;
11135;SDS011;5622;50.840;4.948;2024-02-28T07:47:56;38.60;;;19.90;;
11135;SDS011;5622;50.840;4.948;2024-02-28T07:50:23;35.87;;;20.53;;
11135;SDS011;5622;50.840;4.948;2024-02-28T08:02:56;41.60;;;21.87;;
11135;SDS011;5622;50.840;4.948;2024-02-28T08:08:52;37.17;;;20.07;;
11135;SDS011;5622;50.840;4.948;2024-02-28T08:14:42;35.30;;;19.37;;
11135;SDS011;5622;50.840;4.948;2024-02-28T08:24:13;35.90;;;18.87;;
11135;SDS011;5622;50.840;4.948;2024-02-28T08:53:18;27.93;;;17.20;;
11135;SDS011;5622;50.840;4.948;2024-02-28T11:01:08;23.00;;;13.77;;
11135;SDS011;5622;50.840;4.948;2024-02-28T11:03:37;21.70;;;12.70;;
11135;SDS011;5622;50.840;4.948;2024-02-28T11:12:57;24.27;;;13.03;;
11135;SDS011;5622;50.840;4.948;2024-02-28T11:35:59;18.97;;;11.83;;
11135;SDS011;5622;50.840;4.948;2024-02-28T11:38:28;19.67;;;12.07;;
11135;SDS011;5622;50.840;4.948;2024-02-28T11:40:55;21.70;;;11.37;;
11135;SDS011;5622;50.840;4.948;2024-02-28T13:14:50;10.20;;;6.73;;
11135;SDS011;5622;50.840;4.948;2024-02-28T13:17:19;7.20;;;4.70;;
11135;SDS011;5622;50.840;4.948;2024-02-28T13:19:46;10.33;;;6.50;;
11135;SDS011;5622;50.840;4.948;2024-02-28T13:22:15;10.93;;;5.70;;
11135;SDS011;5622;50.840;4.948;2024-02-28T13:24:43;8.63;;;6.17;;
11135;SDS011;5622;50.840;4.948;2024-02-28T13:27:10;8.50;;;6.03;;
11135;SDS011;5622;50.840;4.948;2024-02-28T13:29:39;7.37;;;5.53;;
11135;SDS011;5622;50.840;4.948;2024-02-28T13:32:07;11.70;;;7.77;;
11135;SDS011;5622;50.840;4.948;2024-02-28T13:34:34;12.03;;;9.53;;
11135;SDS011;5622;50.840;4.948;2024-02-28T13:37:01;9.57;;;7.23;;
11135;SDS011;5622;50.840;4.948;2024-02-28T13:39:29;10.20;;;8.13;;
11135;SDS011;5622;50.840;4.948;2024-02-28T13:41:56;10.30;;;6.70;;
11135;SDS011;5622;50.840;4.948;2024-02-28T13:44:26;10.10;;;8.30;;
11135;SDS011;5622;50.840;4.948;2024-02-28T13:50:27;9.17;;;7.13;;
11135;SDS011;5622;50.840;4.948;2024-02-28T13:56:19;9.47;;;6.10;;
11135;SDS011;5622;50.840;4.948;2024-02-28T13:58:46;9.50;;;7.60;;
11135;SDS011;5622;50.840;4.948;2024-02-28T14:01:15;9.40;;;6.97;;
11135;SDS011;5622;50.840;4.948;2024-02-28T14:03:51;9.17;;;6.77;;
11135;SDS011;5622;50.840;4.948;2024-02-28T14:06:20;6.73;;;5.70;;
11135;SDS011;5622;50.840;4.948;2024-02-28T14:08:47;7.83;;;5.53;;
11135;SDS011;5622;50.840;4.948;2024-02-28T14:11:16;8.70;;;6.77;;
11135;SDS011;5622;50.840;4.948;2024-02-28T14:13:42;14.00;;;9.80;;
11135;SDS011;5622;50.840;4.948;2024-02-28T14:19:36;10.20;;;6.17;;
11135;SDS011;5622;50.840;4.948;2024-02-28T14:25:29;7.93;;;5.20;;
11135;SDS011;5622;50.840;4.948;2024-02-28T14:27:58;9.17;;;5.57;;
11135;SDS011;5622;50.840;4.948;2024-02-28T14:30:29;7.30;;;4.90;;
11135;SDS011;5622;50.840;4.948;2024-02-28T14:32:56;8.13;;;5.47;;
11135;SDS011;5622;50.840;4.948;2024-02-28T14:35:24;9.27;;;5.17;;
11135;SDS011;5622;50.840;4.948;2024-02-28T14:37:51;7.57;;;6.63;;
11135;SDS011;5622;50.840;4.948;2024-02-28T14:40:19;6.87;;;4.43;;
11135;SDS011;5622;50.840;4.948;2024-02-28T14:42:53;4.47;;;4.07;;
11135;SDS011;5622;50.840;4.948;2024-02-28T14:45:22;6.67;;;4.27;;
11135;SDS011;5622;50.840;4.948;2024-02-28T14:47:53;6.03;;;4.10;;
11135;SDS011;5622;50.840;4.948;2024-02-28T14:50:23;6.80;;;4.30;;
11135;SDS011;5622;50.840;4.948;2024-02-28T14:52:50;6.10;;;4.50;;
11135;SDS011;5622;50.840;4.948;2024-02-28T14:55:17;4.83;;;4.00;;
11135;SDS011;5622;50.840;4.948;2024-02-28T14:57:44;5.77;;;4.20;;
11135;SDS011;5622;50.840;4.948;2024-02-28T15:00:13;5.27;;;4.20;;
11135;SDS011;5622;50.840;4.948;2024-02-28T15:05:32;6.50;;;5.73;;
11135;SDS011;5622;50.840;4.948;2024-02-28T15:07:59;7.73;;;5.27;;
11135;SDS011;5622;50.840;4.948;2024-02-28T15:10:28;5.10;;;3.90;;
11135;SDS011;5622;50.840;4.948;2024-02-28T15:12:55;4.03;;;3.57;;
11135;SDS011;5622;50.840;4.948;2024-02-28T15:15:23;4.63;;;4.10;;
11135;SDS011;5622;50.840;4.948;2024-02-28T15:17:49;5.27;;;3.87;;
11135;SDS011;5622;50.840;4.948;2024-02-28T15:20:17;4.97;;;3.93;;
11135;SDS011;5622;50.840;4.948;2024-02-28T15:22:45;6.77;;;4.50;;
11135;SDS011;5622;50.840;4.948;2024-02-28T15:25:12;4.10;;;3.70;;
11135;SDS011;5622;50.840;4.948;2024-02-28T15:27:39;5.23;;;4.20;;
11135;SDS011;5622;50.840;4.948;2024-02-28T15:30:07;5.80;;;4.40;;
11135;SDS011;5622;50.840;4.948;2024-02-28T15:32:36;5.00;;;3.63;;
11135;SDS011;5622;50.840;4.948;2024-02-28T15:35:04;7.20;;;4.37;;
11135;SDS011;5622;50.840;4.948;2024-02-28T15:37:32;6.67;;;4.63;;
11135;SDS011;5622;50.840;4.948;2024-02-28T15:40:00;4.07;;;3.47;;
11135;SDS011;5622;50.840;4.948;2024-02-28T15:42:30;4.10;;;3.70;;
11135;SDS011;5622;50.840;4.948;2024-02-28T15:45:01;7.10;;;4.07;;
11135;SDS011;5622;50.840;4.948;2024-02-28T15:50:52;4.50;;;3.37;;
11135;SDS011;5622;50.840;4.948;2024-02-28T15:53:20;4.50;;;3.87;;
11135;SDS011;5622;50.840;4.948;2024-02-28T15:55:48;5.00;;;4.10;;
11135;SDS011;5622;50.840;4.948;2024-02-28T15:58:15;5.20;;;4.23;;
11135;SDS011;5622;50.840;4.948;2024-02-28T16:00:42;4.33;;;3.93;;
11135;SDS011;5622;50.840;4.948;2024-02-28T16:03:10;6.33;;;3.77;;
11135;SDS011;5622;50.840;4.948;2024-02-28T16:05:37;5.13;;;4.10;;
11135;SDS011;5622;50.840;4.948;2024-02-28T16:08:06;4.93;;;3.83;;
11135;SDS011;5622;50.840;4.948;2024-02-28T16:10:33;4.33;;;3.93;;
11135;SDS011;5622;50.840;4.948;2024-02-28T16:13:01;7.60;;;4.80;;
11135;SDS011;5622;50.840;4.948;2024-02-28T16:15:30;5.57;;;4.20;;
11135;SDS011;5622;50.840;4.948;2024-02-28T16:18:00;7.13;;;5.33;;
11135;SDS011;5622;50.840;4.948;2024-02-28T16:20:29;6.33;;;5.53;;
11135;SDS011;5622;50.840;4.948;2024-02-28T16:22:56;8.17;;;6.20;;
11135;SDS011;5622;50.840;4.948;2024-02-28T16:25:29;10.47;;;7.03;;
11135;SDS011;5622;50.840;4.948;2024-02-28T16:27:57;11.27;;;7.60;;
11135;SDS011;5622;50.840;4.948;2024-02-28T16:30:24;9.80;;;7.80;;
11135;SDS011;5622;50.840;4.948;2024-02-28T16:32:52;8.30;;;7.40;;
11135;SDS011;5622;50.840;4.948;2024-02-28T16:35:19;10.57;;;8.20;;
11135;SDS011;5622;50.840;4.948;2024-02-28T16:37:48;11.33;;;8.10;;
11135;SDS011;5622;50.840;4.948;2024-02-28T16:40:15;12.13;;;8.00;;
11135;SDS011;5622;50.840;4.948;2024-02-28T16:42:44;17.20;;;13.00;;
11135;SDS011;5622;50.840;4.948;2024-02-28T16:45:11;13.03;;;8.47;;
11135;SDS011;5622;50.840;4.948;2024-02-28T16:47:38;8.97;;;6.43;;
11135;SDS011;5622;50.840;4.948;2024-02-28T16:50:07;10.50;;;6.93;;
11135;SDS011;5622;50.840;4.948;2024-02-28T16:52:35;10.87;;;7.37;;
11135;SDS011;5622;50.840;4.948;2024-02-28T16:55:02;11.43;;;8.63;;
11135;SDS011;5622;50.840;4.948;2024-02-28T16:57:32;9.37;;;6.90;;
11135;SDS011;5622;50.840;4.948;2024-02-28T17:00:04;9.03;;;7.00;;
11135;SDS011;5622;50.840;4.948;2024-02-28T17:02:34;9.43;;;8.10;;
11135;SDS011;5622;50.840;4.948;2024-02-28T17:05:03;9.37;;;8.00;;
11135;SDS011;5622;50.840;4.948;2024-02-28T17:07:31;11.43;;;6.60;;
11135;SDS011;5622;50.840;4.948;2024-02-28T17:10:04;8.30;;;6.27;;
11135;SDS011;5622;50.840;4.948;2024-02-28T17:12:31;7.70;;;6.60;;
11135;SDS011;5622;50.840;4.948;2024-02-28T17:14:58;7.93;;;6.27;;
11135;SDS011;5622;50.840;4.948;2024-02-28T17:17:29;7.80;;;6.60;;
11135;SDS011;5622;50.840;4.948;2024-02-28T17:19:56;8.50;;;7.47;;
11135;SDS011;5622;50.840;4.948;2024-02-28T17:22:24;13.17;;;7.20;;
11135;SDS011;5622;50.840;4.948;2024-02-28T17:24:51;9.83;;;7.20;;
11135;SDS011;5622;50.840;4.948;2024-02-28T17:27:18;10.37;;;7.37;;
11135;SDS011;5622;50.840;4.948;2024-02-28T17:29:45;9.07;;;6.70;;
11135;SDS011;5622;50.840;4.948;2024-02-28T17:32:12;8.80;;;6.97;;
11135;SDS011;5622;50.840;4.948;2024-02-28T17:34:41;12.87;;;10.00;;
11135;SDS011;5622;50.840;4.948;2024-02-28T17:37:16;11.70;;;7.33;;
11135;SDS011;5622;50.840;4.948;2024-02-28T17:39:48;7.97;;;6.43;;
11135;SDS011;5622;50.840;4.948;2024-02-28T17:42:20;8.27;;;6.83;;
11135;SDS011;5622;50.840;4.948;2024-02-28T17:44:47;9.93;;;6.93;;
11135;SDS011;5622;50.840;4.948;2024-02-28T17:47:18;8.23;;;6.47;;
11135;SDS011;5622;50.840;4.948;2024-02-28T17:49:47;7.83;;;6.60;;
11135;SDS011;5622;50.840;4.948;2024-02-28T17:52:16;8.50;;;6.97;;
11135;SDS011;5622;50.840;4.948;2024-02-28T17:54:45;8.20;;;6.57;;
11135;SDS011;5622;50.840;4.948;2024-02-28T17:57:13;9.07;;;6.77;;
11135;SDS011;5622;50.840;4.948;2024-02-28T17:59:43;11.20;;;7.47;;
11135;SDS011;5622;50.840;4.948;2024-02-28T18:02:14;8.13;;;6.63;;
11135;SDS011;5622;50.840;4.948;2024-02-28T18:04:44;9.00;;;8.03;;
11135;SDS011;5622;50.840;4.948;2024-02-28T18:07:12;18.30;;;13.80;;
11135;SDS011;5622;50.840;4.948;2024-02-28T18:09:44;15.27;;;12.93;;
11135;SDS011;5622;50.840;4.948;2024-02-28T18:12:12;19.00;;;14.20;;
11135;SDS011;5622;50.840;4.948;2024-02-28T18:14:39;13.27;;;11.37;;
11135;SDS011;5622;50.840;4.948;2024-02-28T18:17:06;12.87;;;10.87;;
11135;SDS011;5622;50.840;4.948;2024-02-28T18:19:33;13.60;;;11.53;;
11135;SDS011;5622;50.840;4.948;2024-02-28T18:22:01;35.87;;;25.10;;
11135;SDS011;5622;50.840;4.948;2024-02-28T18:24:31;21.97;;;14.00;;
11135;SDS011;5622;50.840;4.948;2024-02-28T18:26:59;12.40;;;8.73;;
11135;SDS011;5622;50.840;4.948;2024-02-28T18:29:28;10.67;;;8.00;;
11135;SDS011;5622;50.840;4.948;2024-02-28T18:31:56;11.93;;;9.20;;
11135;SDS011;5622;50.840;4.948;2024-02-28T18:34:29;13.27;;;9.23;;
11135;SDS011;5622;50.840;4.948;2024-02-28T18:36:56;14.50;;;8.60;;
11135;SDS011;5622;50.840;4.948;2024-02-28T18:39:24;13.43;;;8.43;;
11135;SDS011;5622;50.840;4.948;2024-02-28T18:41:53;16.70;;;9.57;;
11135;SDS011;5622;50.840;4.948;2024-02-28T18:44:20;11.77;;;8.87;;
11135;SDS011;5622;50.840;4.948;2024-02-28T18:46:54;12.80;;;9.13;;
11135;SDS011;5622;50.840;4.948;2024-02-28T18:49:22;14.30;;;9.47;;
11135;SDS011;5622;50.840;4.948;2024-02-28T18:51:51;14.17;;;8.60;;
11135;SDS011;5622;50.840;4.948;2024-02-28T18:54:19;15.87;;;9.47;;
11135;SDS011;5622;50.840;4.948;2024-02-28T18:56:48;12.53;;;9.20;;
11135;SDS011;5622;50.840;4.948;2024-02-28T18:59:17;11.67;;;8.93;;
11135;SDS011;5622;50.840;4.948;2024-02-28T19:01:46;12.53;;;9.53;;
11135;SDS011;5622;50.840;4.948;2024-02-28T19:04:14;14.97;;;9.10;;
11135;SDS011;5622;50.840;4.948;2024-02-28T19:06:42;13.37;;;9.50;;
11135;SDS011;5622;50.840;4.948;2024-02-28T19:09:10;13.77;;;9.30;;
11135;SDS011;5622;50.840;4.948;2024-02-28T19:11:38;14.17;;;9.03;;
11135;SDS011;5622;50.840;4.948;2024-02-28T19:14:08;13.73;;;9.60;;
11135;SDS011;5622;50.840;4.948;2024-02-28T19:16:38;18.03;;;10.00;;
11135;SDS011;5622;50.840;4.948;2024-02-28T19:19:05;14.10;;;9.00;;
11135;SDS011;5622;50.840;4.948;2024-02-28T19:21:33;14.47;;;9.00;;
11135;SDS011;5622;50.840;4.948;2024-02-28T19:24:00;13.50;;;8.80;;
11135;SDS011;5622;50.840;4.948;2024-02-28T19:26:28;12.63;;;8.73;;
11135;SDS011;5622;50.840;4.948;2024-02-28T19:28:58;16.60;;;9.13;;
11135;SDS011;5622;50.840;4.948;2024-02-28T19:31:27;16.60;;;9.13;;
11135;SDS011;5622;50.840;4.948;2024-02-28T19:33:55;14.37;;;9.27;;
11135;SDS011;5622;50.840;4.948;2024-02-28T19:36:23;12.77;;;9.73;;
11135;SDS011;5622;50.840;4.948;2024-02-28T19:38:50;15.60;;;10.83;;
11135;SDS011;5622;50.840;4.948;2024-02-28T19:41:18;14.93;;;8.80;;
11135;SDS011;5622;50.840;4.948;2024-02-28T19:43:45;18.57;;;11.80;;
11135;SDS011;5622;50.840;4.948;2024-02-28T19:46:12;15.17;;;9.50;;
11135;SDS011;5622;50.840;4.948;2024-02-28T19:48:39;22.90;;;14.97;;
11135;SDS011;5622;50.840;4.948;2024-02-28T19:51:14;13.50;;;8.63;;
11135;SDS011;5622;50.840;4.948;2024-02-28T19:53:42;15.93;;;9.57;;
11135;SDS011;5622;50.840;4.948;2024-02-28T19:56:10;16.70;;;8.90;;
11135;SDS011;5622;50.840;4.948;2024-02-28T19:58:38;15.13;;;9.10;;
11135;SDS011;5622;50.840;4.948;2024-02-28T20:01:09;14.77;;;9.00;;
11135;SDS011;5622;50.840;4.948;2024-02-28T20:03:36;19.90;;;12.37;;
11135;SDS011;5622;50.840;4.948;2024-02-28T20:06:03;15.77;;;9.17;;
11135;SDS011;5622;50.840;4.948;2024-02-28T20:08:32;13.03;;;8.47;;
11135;SDS011;5622;50.840;4.948;2024-02-28T20:11:00;11.47;;;8.17;;
11135;SDS011;5622;50.840;4.948;2024-02-28T20:13:30;11.03;;;8.40;;
11135;SDS011;5622;50.840;4.948;2024-02-28T20:15:57;13.53;;;8.53;;
11135;SDS011;5622;50.840;4.948;2024-02-28T20:18:24;14.23;;;8.67;;
11135;SDS011;5622;50.840;4.948;2024-02-28T20:20:54;11.13;;;7.73;;
11135;SDS011;5622;50.840;4.948;2024-02-28T20:23:22;13.30;;;8.10;;
11135;SDS011;5622;50.840;4.948;2024-02-28T20:25:52;12.57;;;8.53;;
11135;SDS011;5622;50.840;4.948;2024-02-28T20:28:21;11.10;;;7.37;;
11135;SDS011;5622;50.840;4.948;2024-02-28T20:30:48;8.80;;;7.20;;
11135;SDS011;5622;50.840;4.948;2024-02-28T20:33:16;11.47;;;7.73;;
11135;SDS011;5622;50.840;4.948;2024-02-28T20:35:43;12.10;;;8.10;;
11135;SDS011;5622;50.840;4.948;2024-02-28T20:38:12;11.50;;;7.90;;
11135;SDS011;5622;50.840;4.948;2024-02-28T20:40:41;12.53;;;7.60;;
11135;SDS011;5622;50.840;4.948;2024-02-28T20:43:09;12.67;;;7.63;;
11135;SDS011;5622;50.840;4.948;2024-02-28T20:45:42;11.47;;;7.53;;
11135;SDS011;5622;50.840;4.948;2024-02-28T20:48:09;11.43;;;7.23;;
11135;SDS011;5622;50.840;4.948;2024-02-28T20:50:42;11.37;;;7.63;;
11135;SDS011;5622;50.840;4.948;2024-02-28T20:53:10;9.10;;;6.47;;
11135;SDS011;5622;50.840;4.948;2024-02-28T20:55:37;10.47;;;7.17;;
11135;SDS011;5622;50.840;4.948;2024-02-28T20:58:06;11.60;;;7.17;;
11135;SDS011;5622;50.840;4.948;2024-02-28T21:00:36;10.73;;;6.63;;
11135;SDS011;5622;50.840;4.948;2024-02-28T21:03:03;11.83;;;7.03;;
11135;SDS011;5622;50.840;4.948;2024-02-28T21:05:31;10.07;;;7.07;;
11135;SDS011;5622;50.840;4.948;2024-02-28T21:07:58;9.30;;;7.00;;
11135;SDS011;5622;50.840;4.948;2024-02-28T21:10:25;9.10;;;6.57;;
11135;SDS011;5622;50.840;4.948;2024-02-28T21:12:52;10.77;;;6.50;;
11135;SDS011;5622;50.840;4.948;2024-02-28T21:15:19;10.37;;;6.23;;
11135;SDS011;5622;50.840;4.948;2024-02-28T21:17:48;12.00;;;6.03;;
11135;SDS011;5622;50.840;4.948;2024-02-28T21:20:15;12.90;;;6.30;;
11135;SDS011;5622;50.840;4.948;2024-02-28T21:22:43;11.53;;;6.63;;
11135;SDS011;5622;50.840;4.948;2024-02-28T21:25:11;9.40;;;6.70;;
11135;SDS011;5622;50.840;4.948;2024-02-28T21:27:40;9.87;;;6.33;;
11135;SDS011;5622;50.840;4.948;2024-02-28T21:30:08;10.70;;;6.67;;
11135;SDS011;5622;50.840;4.948;2024-02-28T21:32:38;10.70;;;7.23;;
11135;SDS011;5622;50.840;4.948;2024-02-28T21:35:09;12.00;;;6.80;;
11135;SDS011;5622;50.840;4.948;2024-02-28T21:37:37;12.07;;;6.47;;
11135;SDS011;5622;50.840;4.948;2024-02-28T21:40:05;12.80;;;7.83;;
11135;SDS011;5622;50.840;4.948;2024-02-28T21:42:32;15.60;;;7.17;;
11135;SDS011;5622;50.840;4.948;2024-02-28T21:45:03;10.03;;;7.00;;
11135;SDS011;5622;50.840;4.948;2024-02-28T21:47:31;13.17;;;7.70;;
11135;SDS011;5622;50.840;4.948;2024-02-28T21:49:58;12.13;;;7.13;;
11135;SDS011;5622;50.840;4.948;2024-02-28T21:52:27;14.07;;;7.80;;
11135;SDS011;5622;50.840;4.948;2024-02-28T21:54:56;11.87;;;7.33;;
11135;SDS011;5622;50.840;4.948;2024-02-28T21:57:23;11.93;;;8.73;;
11135;SDS011;5622;50.840;4.948;2024-02-28T21:59:51;14.53;;;7.97;;
11135;SDS011;5622;50.840;4.948;2024-02-28T22:02:18;13.23;;;7.43;;
11135;SDS011;5622;50.840;4.948;2024-02-28T22:04:45;11.77;;;7.73;;
11135;SDS011;5622;50.840;4.948;2024-02-28T22:07:12;13.33;;;8.63;;
11135;SDS011;5622;50.840;4.948;2024-02-28T22:09:40;12.77;;;7.80;;
11135;SDS011;5622;50.840;4.948;2024-02-28T22:12:07;16.23;;;8.50;;
11135;SDS011;5622;50.840;4.948;2024-02-28T22:14:35;13.07;;;8.47;;
11135;SDS011;5622;50.840;4.948;2024-02-28T22:17:03;12.77;;;8.60;;
11135;SDS011;5622;50.840;4.948;2024-02-28T22:19:30;13.27;;;8.30;;
11135;SDS011;5622;50.840;4.948;2024-02-28T22:21:58;12.50;;;7.77;;
11135;SDS011;5622;50.840;4.948;2024-02-28T22:24:25;13.20;;;8.53;;
11135;SDS011;5622;50.840;4.948;2024-02-28T22:26:54;15.40;;;8.83;;
11135;SDS011;5622;50.840;4.948;2024-02-28T22:29:21;15.83;;;8.70;;
11135;SDS011;5622;50.840;4.948;2024-02-28T22:31:49;15.97;;;9.00;;
11135;SDS011;5622;50.840;4.948;2024-02-28T22:34:16;17.73;;;9.03;;
11135;SDS011;5622;50.840;4.948;2024-02-28T22:36:43;15.93;;;8.97;;
11135;SDS011;5622;50.840;4.948;2024-02-28T22:39:11;16.03;;;9.07;;
11135;SDS011;5622;50.840;4.948;2024-02-28T22:41:38;20.20;;;9.47;;
11135;SDS011;5622;50.840;4.948;2024-02-28T22:44:07;14.87;;;9.57;;
11135;SDS011;5622;50.840;4.948;2024-02-28T22:46:35;15.17;;;8.73;;
11135;SDS011;5622;50.840;4.948;2024-02-28T22:49:02;16.20;;;9.87;;
11135;SDS011;5622;50.840;4.948;2024-02-28T22:51:29;17.13;;;9.73;;
11135;SDS011;5622;50.840;4.948;2024-02-28T22:53:57;13.60;;;9.30;;
11135;SDS011;5622;50.840;4.948;2024-02-28T22:56:24;17.80;;;10.33;;
11135;SDS011;5622;50.840;4.948;2024-02-28T22:58:51;18.10;;;10.50;;
11135;SDS011;5622;50.840;4.948;2024-02-28T23:01:22;17.10;;;9.73;;
11135;SDS011;5622;50.840;4.948;2024-02-28T23:03:49;18.37;;;10.03;;
11135;SDS011;5622;50.840;4.948;2024-02-28T23:06:16;19.80;;;10.37;;
11135;SDS011;5622;50.840;4.948;2024-02-28T23:08:44;23.40;;;10.13;;
11135;SDS011;5622;50.840;4.948;2024-02-28T23:11:11;17.07;;;9.90;;
11135;SDS011;5622;50.840;4.948;2024-02-28T23:13:38;18.63;;;9.93;;
11135;SDS011;5622;50.840;4.948;2024-02-28T23:16:07;20.33;;;10.57;;
11135;SDS011;5622;50.840;4.948;2024-02-28T23:18:36;19.87;;;10.73;;
11135;SDS011;5622;50.840;4.948;2024-02-28T23:21:03;15.97;;;10.30;;
11135;SDS011;5622;50.840;4.948;2024-02-28T23:23:32;23.87;;;11.50;;
11135;SDS011;5622;50.840;4.948;2024-02-28T23:26:00;18.53;;;10.67;;
11135;SDS011;5622;50.840;4.948;2024-02-28T23:28:27;20.10;;;10.60;;
11135;SDS011;5622;50.840;4.948;2024-02-28T23:30:55;20.40;;;11.83;;
11135;SDS011;5622;50.840;4.948;2024-02-28T23:33:22;22.73;;;11.43;;
11135;SDS011;5622;50.840;4.948;2024-02-28T23:35:53;21.17;;;11.33;;
11135;SDS011;5622;50.840;4.948;2024-02-28T23:38:23;22.20;;;11.13;;
11135;SDS011;5622;50.840;4.948;2024-02-28T23:40:51;20.47;;;11.00;;
11135;SDS011;5622;50.840;4.948;2024-02-28T23:43:18;23.90;;;11.77;;
11135;SDS011;5622;50.840;4.948;2024-02-28T23:45:46;21.03;;;11.57;;
11135;SDS011;5622;50.840;4.948;2024-02-28T23:48:13;23.40;;;13.30;;
11135;SDS011;5622;50.840;4.948;2024-02-28T23:50:47;21.60;;;11.93;;
11135;SDS011;5622;50.840;4.948;2024-02-28T23:53:18;23.47;;;12.77;;
11135;SDS011;5622;50.840;4.948;2024-02-28T23:55:45;19.07;;;11.97;;
11135;SDS011;5622;50.840;4.948;2024-02-28T23:58:12;22.73;;;13.17;;
